Buchanan, Michigan
Current Conditions -  °F | °C
As of 7:54 PM on Saturday 22 Nov 2014 (Local Time) from KSBN Reporting Station
Overcast Overcast  
Wind Chill: 44°   Ceiling: 2500
Heat Index: 48°   Visibility: 10mi
Dew Point: 45°   Wind: 9mph
Humidity: 89%   Direction: 210°SSW
Pressure: 29.93"   Gusts: NA
Location:  41.83°N, 86.36°W
Report Text: KSBN 230054Z 21008KT 10SM OVC025 09/07 A2993 RMK AO2 SLP141 T00890072
Loading
Personal Weather Stations






























Interactive Weather Map New forecast layout! Learn more

10-Day Weather Forecast

Advertisements
Track Severe Weather on mobile